• images/banner/banner1.jpg
  • images/banner/banner2.jpg

Team Member Login

Aviation Weather

[source: ADDS]
METAR
EGVN 210750Z 18006KT 9999 BKN015 15/12 Q1013 TEMPO SCT010 =
TAF
TAF EGVN 210744Z 2109/2209 18008KT 9999 FEW010 BKN015 BECMG 2109/2112 BKN010 TEMPO 2109/2116 4000 RA BECMG 2114/2116 FEW025 PROB30 2202/2207 5000 MIFG BR =